sensor_id;sensor_type;location;lat;lon;timestamp;pressure;altitude;pressure_sealevel;temperature;humidity
3812;BME280;1921;49.368;11.068;2022-09-03T00:00:34;97492.94;;;13.64;72.39
3812;BME280;1921;49.368;11.068;2022-09-03T00:06:20;97507.25;;;13.55;73.80
3812;BME280;1921;49.368;11.068;2022-09-03T00:12:29;97476.06;;;13.12;74.07
3812;BME280;1921;49.368;11.068;2022-09-03T00:15:04;97539.63;;;13.40;75.09
3812;BME280;1921;49.368;11.068;2022-09-03T00:17:40;97487.91;;;13.01;75.48
3812;BME280;1921;49.368;11.068;2022-09-03T00:20:35;97543.81;;;13.28;76.02
3812;BME280;1921;49.368;11.068;2022-09-03T00:23:27;97498.34;;;12.94;76.39
3812;BME280;1921;49.368;11.068;2022-09-03T00:28:41;97513.72;;;13.04;77.43
3812;BME280;1921;49.368;11.068;2022-09-03T00:31:15;97507.25;;;13.00;77.40
3812;BME280;1921;49.368;11.068;2022-09-03T00:33:44;97529.00;;;13.07;77.88
3812;BME280;1921;49.368;11.068;2022-09-03T00:36:22;97513.66;;;12.98;78.05
3812;BME280;1921;49.368;11.068;2022-09-03T00:38:50;97497.66;;;12.79;77.91
3812;BME280;1921;49.368;11.068;2022-09-03T00:41:36;97506.50;;;12.78;78.22
3812;BME280;1921;49.368;11.068;2022-09-03T00:55:54;97505.38;;;12.53;80.35
3812;BME280;1921;49.368;11.068;2022-09-03T01:01:17;97494.81;;;12.39;81.29
3812;BME280;1921;49.368;11.068;2022-09-03T01:19:26;97531.88;;;12.43;82.12
3812;BME280;1921;49.368;11.068;2022-09-03T01:22:44;97537.66;;;12.38;82.45
3812;BME280;1921;49.368;11.068;2022-09-03T01:25:39;97534.81;;;12.33;82.74
3812;BME280;1921;49.368;11.068;2022-09-03T01:43:21;97535.91;;;12.18;84.21
3812;BME280;1921;49.368;11.068;2022-09-03T01:45:54;97541.16;;;12.18;84.27
3812;BME280;1921;49.368;11.068;2022-09-03T01:48:32;97556.19;;;12.16;84.02
3812;BME280;1921;49.368;11.068;2022-09-03T01:54:19;97546.69;;;12.08;84.95
3812;BME280;1921;49.368;11.068;2022-09-03T02:00:19;97527.03;;;11.91;85.60
3812;BME280;1921;49.368;11.068;2022-09-03T02:02:48;97546.56;;;11.95;86.92
3812;BME280;1921;49.368;11.068;2022-09-03T02:05:27;97501.19;;;11.59;86.70
3812;BME280;1921;49.368;11.068;2022-09-03T02:08:05;97491.28;;;11.55;86.67
3812;BME280;1921;49.368;11.068;2022-09-03T02:10:42;97488.84;;;11.53;86.78
3812;BME280;1921;49.368;11.068;2022-09-03T02:13:24;97472.66;;;11.37;87.02
3812;BME280;1921;49.368;11.068;2022-09-03T02:15:53;97502.56;;;11.55;87.14
3812;BME280;1921;49.368;11.068;2022-09-03T02:18:33;97496.28;;;11.50;87.84
3812;BME280;1921;49.368;11.068;2022-09-03T02:21:01;97505.16;;;11.55;87.04
3812;BME280;1921;49.368;11.068;2022-09-03T02:23:27;97457.63;;;11.24;87.23
3812;BME280;1921;49.368;11.068;2022-09-03T02:26:01;97484.78;;;11.29;89.20
3812;BME280;1921;49.368;11.068;2022-09-03T02:28:29;97541.53;;;11.57;89.53
3812;BME280;1921;49.368;11.068;2022-09-03T02:30:56;97502.91;;;11.31;89.01
3812;BME280;1921;49.368;11.068;2022-09-03T02:33:22;97512.09;;;11.27;89.51
3812;BME280;1921;49.368;11.068;2022-09-03T02:35:48;97544.75;;;11.38;91.40
3812;BME280;1921;49.368;11.068;2022-09-03T02:38:20;97542.22;;;11.29;91.88
3812;BME280;1921;49.368;11.068;2022-09-03T02:40:47;97500.25;;;11.10;91.71
3812;BME280;1921;49.368;11.068;2022-09-03T02:43:29;97553.38;;;11.38;91.14
3812;BME280;1921;49.368;11.068;2022-09-03T02:46:02;97531.72;;;11.23;90.67
3812;BME280;1921;49.368;11.068;2022-09-03T02:48:28;97492.16;;;11.04;91.24
3812;BME280;1921;49.368;11.068;2022-09-03T02:50:54;97499.00;;;11.05;91.09
3812;BME280;1921;49.368;11.068;2022-09-03T02:53:20;97491.97;;;11.06;90.90
3812;BME280;1921;49.368;11.068;2022-09-03T02:55:46;97522.88;;;11.24;90.83
3812;BME280;1921;49.368;11.068;2022-09-03T02:58:12;97528.94;;;11.24;90.43
3812;BME280;1921;49.368;11.068;2022-09-03T03:00:38;97482.19;;;10.93;92.77
3812;BME280;1921;49.368;11.068;2022-09-03T03:03:04;97480.31;;;10.72;94.29
3812;BME280;1921;49.368;11.068;2022-09-03T03:05:47;97522.56;;;10.97;95.28
3812;BME280;1921;49.368;11.068;2022-09-03T03:08:14;97469.53;;;10.61;95.42
3812;BME280;1921;49.368;11.068;2022-09-03T03:10:42;97492.81;;;10.77;94.72
3812;BME280;1921;49.368;11.068;2022-09-03T03:13:10;97493.16;;;10.74;94.28
3812;BME280;1921;49.368;11.068;2022-09-03T03:15:35;97475.00;;;10.66;94.15
3812;BME280;1921;49.368;11.068;2022-09-03T03:18:01;97490.75;;;10.72;94.04
3812;BME280;1921;49.368;11.068;2022-09-03T03:20:27;97508.09;;;10.95;93.79
3812;BME280;1921;49.368;11.068;2022-09-03T03:22:53;97498.38;;;10.89;93.29
3812;BME280;1921;49.368;11.068;2022-09-03T03:25:19;97462.44;;;10.69;93.03
3812;BME280;1921;49.368;11.068;2022-09-03T03:27:45;97525.53;;;11.09;93.82
3812;BME280;1921;49.368;11.068;2022-09-03T03:30:11;97506.28;;;10.95;93.25
3812;BME280;1921;49.368;11.068;2022-09-03T03:32:38;97472.38;;;10.81;93.23
3812;BME280;1921;49.368;11.068;2022-09-03T03:35:05;97510.97;;;11.00;93.05
3812;BME280;1921;49.368;11.068;2022-09-03T03:37:33;97506.56;;;11.00;93.21
3812;BME280;1921;49.368;11.068;2022-09-03T03:40:00;97484.69;;;10.87;92.51
3812;BME280;1921;49.368;11.068;2022-09-03T03:42:25;97493.16;;;10.89;92.65
3812;BME280;1921;49.368;11.068;2022-09-03T03:44:51;97483.81;;;10.79;92.58
3812;BME280;1921;49.368;11.068;2022-09-03T03:47:17;97468.06;;;10.73;92.75
3812;BME280;1921;49.368;11.068;2022-09-03T03:49:43;97518.88;;;10.92;93.36
3812;BME280;1921;49.368;11.068;2022-09-03T03:52:09;97473.84;;;10.54;93.91
3812;BME280;1921;49.368;11.068;2022-09-03T03:54:35;97472.78;;;10.63;93.90
3812;BME280;1921;49.368;11.068;2022-09-03T03:57:00;97461.09;;;10.59;93.98
3812;BME280;1921;49.368;11.068;2022-09-03T03:59:26;97446.25;;;10.44;94.35
3812;BME280;1921;49.368;11.068;2022-09-03T04:01:55;97465.50;;;10.58;94.99
3812;BME280;1921;49.368;11.068;2022-09-03T04:04:21;97480.50;;;10.71;95.06
3812;BME280;1921;49.368;11.068;2022-09-03T04:06:46;97483.81;;;10.79;94.71
3812;BME280;1921;49.368;11.068;2022-09-03T04:09:12;97456.75;;;10.66;94.83
3812;BME280;1921;49.368;11.068;2022-09-03T04:11:38;97454.53;;;10.63;94.56
3812;BME280;1921;49.368;11.068;2022-09-03T04:14:04;97520.50;;;11.08;94.52
3812;BME280;1921;49.368;11.068;2022-09-03T04:16:30;97425.66;;;10.49;94.29
3812;BME280;1921;49.368;11.068;2022-09-03T04:18:57;97473.84;;;10.83;94.08
3812;BME280;1921;49.368;11.068;2022-09-03T04:21:29;97508.53;;;11.13;94.24
3812;BME280;1921;49.368;11.068;2022-09-03T04:23:56;97496.63;;;11.11;94.29
3812;BME280;1921;49.368;11.068;2022-09-03T04:26:28;97462.56;;;10.97;94.12
3812;BME280;1921;49.368;11.068;2022-09-03T04:28:59;97445.66;;;10.93;94.03
3812;BME280;1921;49.368;11.068;2022-09-03T04:31:26;97468.56;;;11.13;93.88
3812;BME280;1921;49.368;11.068;2022-09-03T04:33:52;97458.13;;;11.13;93.94
3812;BME280;1921;49.368;11.068;2022-09-03T04:36:22;97472.94;;;11.27;92.92
3812;BME280;1921;49.368;11.068;2022-09-03T04:38:51;97519.91;;;11.63;92.86
3812;BME280;1921;49.368;11.068;2022-09-03T04:41:22;97507.22;;;11.60;92.40
3812;BME280;1921;49.368;11.068;2022-09-03T04:43:53;97473.13;;;11.47;92.27
3812;BME280;1921;49.368;11.068;2022-09-03T04:46:22;97502.69;;;11.69;91.98
3812;BME280;1921;49.368;11.068;2022-09-03T04:48:52;97539.03;;;12.06;92.35
3812;BME280;1921;49.368;11.068;2022-09-03T04:51:22;97529.59;;;12.05;92.18
3812;BME280;1921;49.368;11.068;2022-09-03T04:53:54;97503.59;;;12.04;92.73
3812;BME280;1921;49.368;11.068;2022-09-03T04:56:25;97514.03;;;12.25;93.13
3812;BME280;1921;49.368;11.068;2022-09-03T04:58:57;97514.25;;;12.58;92.67
3812;BME280;1921;49.368;11.068;2022-09-03T05:01:26;97558.22;;;13.04;90.00
3812;BME280;1921;49.368;11.068;2022-09-03T05:03:54;97532.53;;;13.28;88.99
3812;BME280;1921;49.368;11.068;2022-09-03T05:06:20;97522.31;;;13.46;85.42
3812;BME280;1921;49.368;11.068;2022-09-03T05:08:51;97502.41;;;13.71;83.53
3812;BME280;1921;49.368;11.068;2022-09-03T05:11:18;97499.84;;;13.98;80.61
3812;BME280;1921;49.368;11.068;2022-09-03T05:13:51;97557.75;;;14.43;78.79
3812;BME280;1921;49.368;11.068;2022-09-03T05:16:19;97531.91;;;14.26;78.19
3812;BME280;1921;49.368;11.068;2022-09-03T05:18:45;97515.53;;;13.78;79.13
3812;BME280;1921;49.368;11.068;2022-09-03T05:21:15;97518.53;;;13.55;80.97
3812;BME280;1921;49.368;11.068;2022-09-03T05:23:44;97482.19;;;13.26;82.30
3812;BME280;1921;49.368;11.068;2022-09-03T05:26:13;97513.63;;;13.32;83.09
3812;BME280;1921;49.368;11.068;2022-09-03T05:28:41;97510.81;;;13.34;82.61
3812;BME280;1921;49.368;11.068;2022-09-03T05:31:16;97536.25;;;13.53;82.38
3812;BME280;1921;49.368;11.068;2022-09-03T05:33:52;97530.03;;;13.13;83.53
3812;BME280;1921;49.368;11.068;2022-09-03T05:36:21;97512.47;;;13.00;84.19
3812;BME280;1921;49.368;11.068;2022-09-03T05:38:51;97523.78;;;12.73;86.04
3812;BME280;1921;49.368;11.068;2022-09-03T05:41:21;97503.84;;;12.65;86.20
3812;BME280;1921;49.368;11.068;2022-09-03T05:43:49;97519.13;;;13.03;85.78
3812;BME280;1921;49.368;11.068;2022-09-03T05:46:20;97525.28;;;13.23;84.49
3812;BME280;1921;49.368;11.068;2022-09-03T05:48:46;97504.94;;;12.84;86.29
3812;BME280;1921;49.368;11.068;2022-09-03T05:51:15;97507.13;;;12.46;88.22
3812;BME280;1921;49.368;11.068;2022-09-03T05:53:46;97522.19;;;12.72;87.45
3812;BME280;1921;49.368;11.068;2022-09-03T05:56:19;97517.47;;;13.30;86.29
3812;BME280;1921;49.368;11.068;2022-09-03T05:58:51;97469.38;;;13.70;81.19
3812;BME280;1921;49.368;11.068;2022-09-03T06:01:21;97524.03;;;14.40;79.44
3812;BME280;1921;49.368;11.068;2022-09-03T06:03:57;97516.09;;;14.93;78.10
3812;BME280;1921;49.368;11.068;2022-09-03T06:06:25;97539.38;;;15.27;71.81
3812;BME280;1921;49.368;11.068;2022-09-03T06:08:57;97454.13;;;14.85;72.92
3812;BME280;1921;49.368;11.068;2022-09-03T06:11:24;97499.63;;;15.62;71.75
3812;BME280;1921;49.368;11.068;2022-09-03T06:13:59;97518.22;;;15.60;70.16
3812;BME280;1921;49.368;11.068;2022-09-03T06:16:31;97490.91;;;15.93;68.16
3812;BME280;1921;49.368;11.068;2022-09-03T06:18:57;97516.63;;;16.41;68.03
3812;BME280;1921;49.368;11.068;2022-09-03T06:21:23;97512.31;;;16.72;66.37
3812;BME280;1921;49.368;11.068;2022-09-03T06:23:54;97495.72;;;16.64;65.30
3812;BME280;1921;49.368;11.068;2022-09-03T06:26:24;97529.97;;;16.89;64.39
3812;BME280;1921;49.368;11.068;2022-09-03T06:28:50;97497.72;;;16.69;64.69
3812;BME280;1921;49.368;11.068;2022-09-03T06:31:20;97511.34;;;16.66;65.07
3812;BME280;1921;49.368;11.068;2022-09-03T06:33:47;97549.88;;;17.22;62.69
3812;BME280;1921;49.368;11.068;2022-09-03T06:36:16;97497.94;;;16.67;65.13
3812;BME280;1921;49.368;11.068;2022-09-03T06:38:43;97554.97;;;17.17;63.43
3812;BME280;1921;49.368;11.068;2022-09-03T06:41:11;97563.31;;;17.81;61.41
3812;BME280;1921;49.368;11.068;2022-09-03T06:43:40;97520.47;;;17.97;59.21
3812;BME280;1921;49.368;11.068;2022-09-03T06:46:09;97537.28;;;18.26;58.04
3812;BME280;1921;49.368;11.068;2022-09-03T06:48:36;97510.31;;;18.36;57.56
3812;BME280;1921;49.368;11.068;2022-09-03T06:51:12;97498.81;;;18.65;56.75
3812;BME280;1921;49.368;11.068;2022-09-03T06:53:47;97528.03;;;18.82;55.30
3812;BME280;1921;49.368;11.068;2022-09-03T06:56:22;97505.19;;;17.87;58.50
3812;BME280;1921;49.368;11.068;2022-09-03T06:58:54;97504.94;;;16.80;63.11
3812;BME280;1921;49.368;11.068;2022-09-03T07:01:23;97491.75;;;17.47;61.31
3812;BME280;1921;49.368;11.068;2022-09-03T07:03:55;97502.03;;;18.44;58.24
3812;BME280;1921;49.368;11.068;2022-09-03T07:06:27;97449.69;;;17.52;58.45
3812;BME280;1921;49.368;11.068;2022-09-03T07:08:54;97493.66;;;18.12;58.69
3812;BME280;1921;49.368;11.068;2022-09-03T07:11:23;97440.97;;;18.17;56.56
3812;BME280;1921;49.368;11.068;2022-09-03T07:13:53;97474.56;;;18.92;54.65
3812;BME280;1921;49.368;11.068;2022-09-03T07:16:39;97480.28;;;19.69;52.62
3812;BME280;1921;49.368;11.068;2022-09-03T07:19:06;97532.72;;;20.51;50.82
3812;BME280;1921;49.368;11.068;2022-09-03T07:21:35;97489.75;;;20.49;49.96
3812;BME280;1921;49.368;11.068;2022-09-03T07:24:06;97506.44;;;19.99;51.94
3812;BME280;1921;49.368;11.068;2022-09-03T07:26:42;97523.38;;;20.65;49.34
3812;BME280;1921;49.368;11.068;2022-09-03T07:29:09;97505.53;;;20.78;49.12
3812;BME280;1921;49.368;11.068;2022-09-03T07:31:41;97489.88;;;20.98;48.61
3812;BME280;1921;49.368;11.068;2022-09-03T07:34:11;97491.84;;;20.86;49.01
3812;BME280;1921;49.368;11.068;2022-09-03T07:36:39;97555.38;;;21.19;48.30
3812;BME280;1921;49.368;11.068;2022-09-03T07:39:08;97498.88;;;21.41;47.49
3812;BME280;1921;49.368;11.068;2022-09-03T07:41:34;97552.28;;;21.28;47.10
3812;BME280;1921;49.368;11.068;2022-09-03T07:44:00;97509.19;;;20.93;47.50
3812;BME280;1921;49.368;11.068;2022-09-03T07:46:33;97543.66;;;21.15;47.38
3812;BME280;1921;49.368;11.068;2022-09-03T07:49:00;97494.25;;;21.09;46.73
3812;BME280;1921;49.368;11.068;2022-09-03T07:51:34;97505.78;;;21.42;46.54
3812;BME280;1921;49.368;11.068;2022-09-03T07:54:02;97417.22;;;20.99;46.10
3812;BME280;1921;49.368;11.068;2022-09-03T07:56:29;97543.25;;;22.26;44.92
3812;BME280;1921;49.368;11.068;2022-09-03T07:59:00;97505.38;;;22.09;43.85
3812;BME280;1921;49.368;11.068;2022-09-03T08:01:27;97518.31;;;22.33;44.28
3812;BME280;1921;49.368;11.068;2022-09-03T08:03:56;97493.47;;;22.49;42.77
3812;BME280;1921;49.368;11.068;2022-09-03T08:06:25;97485.09;;;22.30;43.47
3812;BME280;1921;49.368;11.068;2022-09-03T08:08:56;97512.16;;;22.64;43.53
3812;BME280;1921;49.368;11.068;2022-09-03T08:11:24;97514.31;;;22.67;42.75
3812;BME280;1921;49.368;11.068;2022-09-03T08:14:11;97489.03;;;21.63;44.27
3812;BME280;1921;49.368;11.068;2022-09-03T08:16:40;97473.66;;;21.16;45.29
3812;BME280;1921;49.368;11.068;2022-09-03T08:19:06;97526.78;;;21.43;45.65
3812;BME280;1921;49.368;11.068;2022-09-03T08:21:33;97512.22;;;21.46;45.67
3812;BME280;1921;49.368;11.068;2022-09-03T08:23:58;97526.50;;;21.94;44.76
3812;BME280;1921;49.368;11.068;2022-09-03T08:26:30;97544.56;;;22.24;44.82
3812;BME280;1921;49.368;11.068;2022-09-03T08:28:56;97490.56;;;22.13;43.90
3812;BME280;1921;49.368;11.068;2022-09-03T08:31:23;97485.03;;;22.20;44.09
3812;BME280;1921;49.368;11.068;2022-09-03T08:33:52;97526.38;;;22.43;43.61
3812;BME280;1921;49.368;11.068;2022-09-03T08:36:30;97507.47;;;22.39;43.48
3812;BME280;1921;49.368;11.068;2022-09-03T08:39:03;97538.34;;;22.45;43.73
3812;BME280;1921;49.368;11.068;2022-09-03T08:44:35;97549.28;;;22.49;43.65
3812;BME280;1921;49.368;11.068;2022-09-03T08:47:20;97520.88;;;22.60;43.53
3812;BME280;1921;49.368;11.068;2022-09-03T08:58:19;97519.59;;;22.25;44.28
3812;BME280;1921;49.368;11.068;2022-09-03T09:03:47;97524.66;;;23.11;43.98
3812;BME280;1921;49.368;11.068;2022-09-03T09:06:38;97505.50;;;23.14;43.43
3812;BME280;1921;49.368;11.068;2022-09-03T09:09:35;97525.78;;;22.36;45.31
3812;BME280;1921;49.368;11.068;2022-09-03T09:12:29;97515.09;;;21.98;46.79
3812;BME280;1921;49.368;11.068;2022-09-03T09:15:41;97521.28;;;22.36;45.88
3812;BME280;1921;49.368;11.068;2022-09-03T09:21:16;97520.34;;;23.00;43.83
3812;BME280;1921;49.368;11.068;2022-09-03T09:23:46;97477.00;;;22.99;42.90
3812;BME280;1921;49.368;11.068;2022-09-03T09:26:16;97444.59;;;23.18;42.52
3812;BME280;1921;49.368;11.068;2022-09-03T09:29:00;97468.25;;;23.14;43.17
3812;BME280;1921;49.368;11.068;2022-09-03T09:31:27;97482.22;;;23.57;42.73
3812;BME280;1921;49.368;11.068;2022-09-03T09:34:02;97490.03;;;24.04;41.54
3812;BME280;1921;49.368;11.068;2022-09-03T09:36:30;97450.25;;;24.54;39.64
3812;BME280;1921;49.368;11.068;2022-09-03T09:38:55;97441.81;;;24.96;39.31
3812;BME280;1921;49.368;11.068;2022-09-03T09:41:32;97483.19;;;25.97;38.35
3812;BME280;1921;49.368;11.068;2022-09-03T09:44:03;97461.28;;;26.24;36.80
3812;BME280;1921;49.368;11.068;2022-09-03T09:46:36;97471.78;;;26.74;36.78
3812;BME280;1921;49.368;11.068;2022-09-03T09:49:33;97371.69;;;25.69;36.98
3812;BME280;1921;49.368;11.068;2022-09-03T09:52:11;97497.06;;;26.87;36.71
3812;BME280;1921;49.368;11.068;2022-09-03T09:54:40;97455.72;;;26.74;36.46
3812;BME280;1921;49.368;11.068;2022-09-03T09:57:14;97452.81;;;27.37;35.62
3812;BME280;1921;49.368;11.068;2022-09-03T09:59:43;97451.22;;;28.06;34.39
3812;BME280;1921;49.368;11.068;2022-09-03T10:02:12;97481.59;;;26.60;36.88
3812;BME280;1921;49.368;11.068;2022-09-03T10:04:38;97439.88;;;26.59;37.27
3812;BME280;1921;49.368;11.068;2022-09-03T10:07:30;97430.50;;;27.42;35.26
3812;BME280;1921;49.368;11.068;2022-09-03T10:10:06;97482.50;;;27.97;35.88
3812;BME280;1921;49.368;11.068;2022-09-03T10:12:52;97441.50;;;28.98;34.37
3812;BME280;1921;49.368;11.068;2022-09-03T10:15:47;97478.63;;;30.04;32.94
3812;BME280;1921;49.368;11.068;2022-09-03T10:21:29;97474.53;;;29.85;33.44
3812;BME280;1921;49.368;11.068;2022-09-03T10:26:46;97444.06;;;30.91;31.40
3812;BME280;1921;49.368;11.068;2022-09-03T10:29:21;97356.41;;;30.68;31.45
3812;BME280;1921;49.368;11.068;2022-09-03T10:32:07;97432.94;;;28.82;34.58
3812;BME280;1921;49.368;11.068;2022-09-03T10:35:05;97470.81;;;30.17;33.20
3812;BME280;1921;49.368;11.068;2022-09-03T10:43:59;97458.09;;;27.80;37.66
3812;BME280;1921;49.368;11.068;2022-09-03T10:50:29;97430.66;;;30.60;32.33
3812;BME280;1921;49.368;11.068;2022-09-03T10:56:08;97449.91;;;31.50;31.99
3812;BME280;1921;49.368;11.068;2022-09-03T10:58:51;97460.50;;;31.38;31.64
3812;BME280;1921;49.368;11.068;2022-09-03T11:01:50;97336.84;;;30.05;32.54
3812;BME280;1921;49.368;11.068;2022-09-03T11:05:05;97452.06;;;30.34;33.89
3812;BME280;1921;49.368;11.068;2022-09-03T11:07:38;97462.28;;;29.56;35.65
3812;BME280;1921;49.368;11.068;2022-09-03T11:10:32;97429.50;;;29.32;35.50
3812;BME280;1921;49.368;11.068;2022-09-03T11:13:05;97467.06;;;29.09;36.17
3812;BME280;1921;49.368;11.068;2022-09-03T11:15:36;97444.63;;;29.28;35.85
3812;BME280;1921;49.368;11.068;2022-09-03T11:18:36;97466.75;;;29.61;35.96
3812;BME280;1921;49.368;11.068;2022-09-03T11:21:09;97418.81;;;28.90;36.21
3812;BME280;1921;49.368;11.068;2022-09-03T11:23:44;97455.03;;;29.79;35.22
3812;BME280;1921;49.368;11.068;2022-09-03T11:26:18;97402.38;;;30.09;34.46
3812;BME280;1921;49.368;11.068;2022-09-03T11:35:27;97402.81;;;30.25;33.35
3812;BME280;1921;49.368;11.068;2022-09-03T11:38:07;97417.84;;;30.66;33.41
3812;BME280;1921;49.368;11.068;2022-09-03T11:43:46;97396.41;;;30.12;33.89
3812;BME280;1921;49.368;11.068;2022-09-03T11:48:52;97409.50;;;29.60;35.11
3812;BME280;1921;49.368;11.068;2022-09-03T11:56:31;97417.94;;;28.67;36.07
3812;BME280;1921;49.368;11.068;2022-09-03T12:04:21;97434.94;;;29.76;35.09
3812;BME280;1921;49.368;11.068;2022-09-03T12:07:24;97399.88;;;30.44;33.72
3812;BME280;1921;49.368;11.068;2022-09-03T12:16:06;97408.34;;;31.25;33.18
3812;BME280;1921;49.368;11.068;2022-09-03T12:18:39;97375.78;;;31.04;33.11
3812;BME280;1921;49.368;11.068;2022-09-03T12:21:08;97367.47;;;30.18;34.12
3812;BME280;1921;49.368;11.068;2022-09-03T12:26:22;97416.59;;;29.20;36.34
3812;BME280;1921;49.368;11.068;2022-09-03T12:28:55;97370.22;;;28.64;36.91
3812;BME280;1921;49.368;11.068;2022-09-03T12:31:29;97406.25;;;28.31;38.64
3812;BME280;1921;49.368;11.068;2022-09-03T12:34:02;97347.75;;;28.05;38.52
3812;BME280;1921;49.368;11.068;2022-09-03T12:36:44;97384.81;;;28.31;38.21
3812;BME280;1921;49.368;11.068;2022-09-03T12:39:14;97370.09;;;26.26;42.75
3812;BME280;1921;49.368;11.068;2022-09-03T12:41:59;97412.03;;;26.01;44.35
3812;BME280;1921;49.368;11.068;2022-09-03T12:47:12;97364.03;;;26.44;42.73
3812;BME280;1921;49.368;11.068;2022-09-03T12:49:42;97419.53;;;26.57;43.63
3812;BME280;1921;49.368;11.068;2022-09-03T12:55:33;97414.50;;;27.36;41.77
3812;BME280;1921;49.368;11.068;2022-09-03T12:58:15;97414.19;;;27.57;40.95
3812;BME280;1921;49.368;11.068;2022-09-03T13:01:13;97391.72;;;27.39;40.67
3812;BME280;1921;49.368;11.068;2022-09-03T13:03:58;97366.34;;;27.50;40.63
3812;BME280;1921;49.368;11.068;2022-09-03T13:06:34;97373.59;;;27.82;40.71
3812;BME280;1921;49.368;11.068;2022-09-03T13:09:08;97391.81;;;27.99;40.72
3812;BME280;1921;49.368;11.068;2022-09-03T13:11:35;97358.13;;;27.79;40.60
3812;BME280;1921;49.368;11.068;2022-09-03T13:14:11;97405.56;;;28.11;40.66
3812;BME280;1921;49.368;11.068;2022-09-03T13:28:47;97415.09;;;28.17;40.57
3812;BME280;1921;49.368;11.068;2022-09-03T13:31:40;97421.16;;;28.09;40.88
3812;BME280;1921;49.368;11.068;2022-09-03T13:34:37;97421.44;;;28.08;41.37
3812;BME280;1921;49.368;11.068;2022-09-03T13:40:18;97413.28;;;27.10;44.08
3812;BME280;1921;49.368;11.068;2022-09-03T13:43:03;97412.56;;;27.23;43.52
3812;BME280;1921;49.368;11.068;2022-09-03T13:45:38;97394.06;;;27.27;43.03
3812;BME280;1921;49.368;11.068;2022-09-03T13:48:19;97404.22;;;27.06;44.15
3812;BME280;1921;49.368;11.068;2022-09-03T13:51:21;97426.03;;;26.94;44.39
3812;BME280;1921;49.368;11.068;2022-09-03T13:59:50;97289.84;;;25.83;45.50
3812;BME280;1921;49.368;11.068;2022-09-03T14:03:04;97414.66;;;26.65;45.52
3812;BME280;1921;49.368;11.068;2022-09-03T14:10:02;97295.97;;;24.81;50.15
3812;BME280;1921;49.368;11.068;2022-09-03T14:18:44;97428.84;;;26.07;48.80
3812;BME280;1921;49.368;11.068;2022-09-03T14:21:32;97393.06;;;25.69;49.87
3812;BME280;1921;49.368;11.068;2022-09-03T14:26:53;97405.91;;;26.01;49.00
3812;BME280;1921;49.368;11.068;2022-09-03T14:29:34;97434.97;;;26.08;48.74
3812;BME280;1921;49.368;11.068;2022-09-03T14:35:01;97365.13;;;25.56;48.95
3812;BME280;1921;49.368;11.068;2022-09-03T14:47:07;97427.97;;;26.17;48.25
3812;BME280;1921;49.368;11.068;2022-09-03T14:50:07;97377.25;;;25.77;48.85
3812;BME280;1921;49.368;11.068;2022-09-03T14:55:44;97411.13;;;25.87;49.74
3812;BME280;1921;49.368;11.068;2022-09-03T15:01:12;97413.34;;;25.70;50.64
3812;BME280;1921;49.368;11.068;2022-09-03T15:12:51;97421.09;;;25.32;52.21
3812;BME280;1921;49.368;11.068;2022-09-03T15:15:31;97390.81;;;25.13;53.14
3812;BME280;1921;49.368;11.068;2022-09-03T15:18:31;97380.22;;;24.92;53.17
3812;BME280;1921;49.368;11.068;2022-09-03T15:24:53;97363.13;;;24.29;54.33
3812;BME280;1921;49.368;11.068;2022-09-03T15:30:17;97383.72;;;23.82;56.99
3812;BME280;1921;49.368;11.068;2022-09-03T15:36:05;97319.28;;;23.55;56.76
3812;BME280;1921;49.368;11.068;2022-09-03T15:38:45;97346.97;;;23.79;56.25
3812;BME280;1921;49.368;11.068;2022-09-03T15:44:11;97403.16;;;23.98;57.17
3812;BME280;1921;49.368;11.068;2022-09-03T15:46:46;97416.22;;;24.05;56.83
3812;BME280;1921;49.368;11.068;2022-09-03T15:55:29;97436.97;;;24.03;56.88
3812;BME280;1921;49.368;11.068;2022-09-03T15:58:34;97434.06;;;23.94;57.72
3812;BME280;1921;49.368;11.068;2022-09-03T16:12:39;97455.09;;;23.70;61.06
3812;BME280;1921;49.368;11.068;2022-09-03T16:15:18;97403.56;;;22.93;65.61
3812;BME280;1921;49.368;11.068;2022-09-03T16:21:02;97469.63;;;22.22;75.60
3812;BME280;1921;49.368;11.068;2022-09-03T16:26:11;97279.28;;;20.18;80.34
3812;BME280;1921;49.368;11.068;2022-09-03T16:31:41;97507.50;;;20.49;85.71
3812;BME280;1921;49.368;11.068;2022-09-03T16:34:19;97518.22;;;19.92;90.23
3812;BME280;1921;49.368;11.068;2022-09-03T16:37:34;97528.41;;;19.14;96.38
3812;BME280;1921;49.368;11.068;2022-09-03T16:49:45;97487.56;;;17.69;100.00
3812;BME280;1921;49.368;11.068;2022-09-03T16:52:58;97493.34;;;17.00;100.00
3812;BME280;1921;49.368;11.068;2022-09-03T16:56:06;97508.28;;;16.87;100.00
3812;BME280;1921;49.368;11.068;2022-09-03T16:58:47;97510.19;;;16.80;100.00
3812;BME280;1921;49.368;11.068;2022-09-03T17:07:50;97463.28;;;16.71;100.00
3812;BME280;1921;49.368;11.068;2022-09-03T17:11:04;97531.84;;;16.82;100.00
3812;BME280;1921;49.368;11.068;2022-09-03T17:14:05;97531.91;;;16.76;100.00
3812;BME280;1921;49.368;11.068;2022-09-03T17:19:42;97389.41;;;16.29;100.00
3812;BME280;1921;49.368;11.068;2022-09-03T17:25:37;97527.41;;;17.49;100.00
3812;BME280;1921;49.368;11.068;2022-09-03T17:28:15;97527.22;;;17.63;100.00
3812;BME280;1921;49.368;11.068;2022-09-03T17:30:55;97390.34;;;16.89;100.00
3812;BME280;1921;49.368;11.068;2022-09-03T17:36:24;97522.38;;;17.78;100.00
3812;BME280;1921;49.368;11.068;2022-09-03T17:41:53;97497.47;;;17.74;100.00
3812;BME280;1921;49.368;11.068;2022-09-03T17:44:49;97529.19;;;17.97;100.00
3812;BME280;1921;49.368;11.068;2022-09-03T17:47:50;97531.97;;;18.02;100.00
3812;BME280;1921;49.368;11.068;2022-09-03T17:50:24;97482.59;;;17.80;100.00
3812;BME280;1921;49.368;11.068;2022-09-03T17:52:52;97515.44;;;17.95;100.00
3812;BME280;1921;49.368;11.068;2022-09-03T17:55:54;97447.41;;;17.56;100.00
3812;BME280;1921;49.368;11.068;2022-09-03T18:04:00;97492.28;;;17.67;100.00
3812;BME280;1921;49.368;11.068;2022-09-03T18:06:56;97522.28;;;17.85;100.00
3812;BME280;1921;49.368;11.068;2022-09-03T18:09:34;97493.41;;;17.60;100.00
3812;BME280;1921;49.368;11.068;2022-09-03T18:15:23;97469.16;;;17.39;100.00
3812;BME280;1921;49.368;11.068;2022-09-03T18:17:58;97499.44;;;17.48;100.00
3812;BME280;1921;49.368;11.068;2022-09-03T18:20:28;97475.47;;;17.50;100.00
3812;BME280;1921;49.368;11.068;2022-09-03T18:23:45;97496.38;;;17.63;100.00